Las Coloradas, Argentina
Current Conditions -  °F | °C
As of 2:00 PM on Friday 24 Oct 2014 (Local Time) from SAZS Reporting Station
Clear Clear  
Wind Chill: 21°   Ceiling: Unl
Heat Index: 21°   Visibility: 6mi
Dew Point: -3°   Wind: 12mph
Humidity: 20%   Direction: 320°NW
Pressure: 30.06"   Gusts: NA
Location:  39.55°S, 70.58°W
Report Text: SAZS 241700Z 32010KT CAVOK 21/M03 Q1018
Loading
Personal Weather Stations






























Interactive Weather Map
Tropical Storm Tracking
New forecast layout! Learn more

10-Day Weather Forecast

Advertisements
Track Severe Weather on mobile